DAOR

Details ICAO DAOR (CBH)
Name BECHAR
Region Algeria
Timezone Africa/Algiers (UTC+1.0)
Plans Departing 11
Arriving 23
Stats Elevation 2,661 ft / 811 m (AMSL)
Location 31.645745° -2.269862°
Runways 2
Magnetic Variation 0.373° W
Sunrise 2017-12-11 07:00:06 UTC / 2017-12-11 08:00:06 Local
Sunset 2017-12-11 17:07:29 UTC / 2017-12-11 18:07:29 Local
Advertisement - Login to hide

Runways

ID Width Length Bearing (true) Bearing (mag) Surface Threshold Offset Overrun Length
06 148 ft / 45 m 12,238 ft / 3,730 m 59.85° 60.22° Asphalt 0 ft / 0 m 0 ft / 0 m
18 148 ft / 45 m 9,873 ft / 3,009 m 179.95° 180.32° Asphalt 0 ft / 0 m 0 ft / 0 m
24 148 ft / 45 m 12,238 ft / 3,730 m 239.86° 240.23° Asphalt 2,370 ft / 722 m 0 ft / 0 m
36 148 ft / 45 m 9,873 ft / 3,009 m 359.95° 0.32° Asphalt 0 ft / 0 m 0 ft / 0 m

Map

Weather


0- 5 10 15 20 25 30 35+ Temperature / ° C

Clouds and Precipitation
Forecast for 2017-12-12 00:00 UTC. Updated 4 minutes ago

Ground ~20,000 ft ~40,000 ft Winds

METAR

DAOR 112100Z 20011KT 5000 NSC 15/M03 Q1009

TAF

Not found
Warning: Do not use this data for real-world aviation or navigation. No guarantee of current accuracy is given.